Novi, MI (48374)

13:50 EDT 19. Září 2014 (GMT -0400)
Taft rd north of 10 mile rd | Change Station
CLOSE
Current Station
Osobní povětrnostní stanice
Location: Novi, MI
Nadmořská výška: 940 ft
Poblíž povětrnostní stanice

Výška 940 ft 42.47 °N, 83.49 °W | Updated 6 seconds ago

Částečně oblačno
Částečně oblačno
66.2 °F
Pocit jako 66.2 °F
S
0.0
Vítr proměnlivý Vítr od VJV
Gusts 4.0 mil/h

Dnes
Vysoké -- | Nízké -- °F
--% Možnost srážek
Včera
Vysoké -- | Nízké -- °F
Precip. -- inčů
7:18 AM 7:36 PM
Ubývající srpek, 18% visible
Tlak 30.22 inčů
Viditelnost 10.0 mílí
Zataženo Skoro zataženo 25000 ft
Rosný bod 44 °F
Vlhkost 45%
Dešťové srážky 0.00 inčů
Sněhová pokrývka Není k dispozici
UV záření 4 ze 12
Pyl 4.30 ze 12
Ozón Dobrý
PM2.5 Dobrý
Flu Activity Není k dispozici
METAR KPTK 191653Z VRB05KT 10SM BKN250 17/07 A3021 RMK AO2 SLP232 T01670067

More Conditions Fewer Conditions

Tlak 30.22 inčů
Viditelnost 10.0 mílí
Zataženo Skoro zataženo 25000 ft
Rosný bod 44 °F
Vlhkost 45%
Dešťové srážky 0.00 inčů
Sněhová pokrývka Není k dispozici
UV záření 4 ze 12
Pyl 4.30 ze 12
Ozón Dobrý
PM2.5 Dobrý
Flu Activity Není k dispozici
METAR KPTK 191653Z VRB05KT 10SM BKN250 17/07 A3021 RMK AO2 SLP232 T01670067

More Conditions Fewer Conditions

10-Day Weather Forecast

Almanac

Astronomie

Sep. 19, 2014 Východ Západ
Skutečný čas 07:18 EDT 19:36 EDT
Občanský soumrak 06:50 EDT 20:04 EDT
Námořní soumrak 06:16 EDT 20:37 EDT
Astronomický soumrak 05:43 EDT 21:11 EDT
Měsíc 02:58 EDT 17:08 EDT
Délka denního světla 13h 14m
Délka dne
12h 18m
Tomorrow will be 2m 50s shorter.
Ubývající srpek, 18% of the Moon is Illuminated
Dnes
Ubývající srpek
Zář 24
Nov
Říj 1
První čtvrť
Říj 8
Úplněk
Říj 15
Ubývající

Dnešní extrémy

State Highs State Lows

Community

WunderPhotos

Upload Photos

1,754,668 snímků staženo!

Nearby

Kvalita ovzduší

  Kvalita ovzduší Index kvality ovzduší Polutant
Včera Dobrý
PM2.5
Včera Dobrý
OZONE
Nyní Dobrý
PM2.5
Nyní Dobrý
OZONE
Pátek Střední
PM2.5
Pátek Dobrý
OZONE
Sobota Dobrý
OZONE
Sobota Dobrý
PM2.5
Neděle Dobrý
OZONE
Neděle Dobrý
PM2.5
Pondělí Dobrý
OZONE
Pondělí Dobrý
PM2.5

Výška sněhu

Station Hloubka Nadmořská výška
Žádný nový sníh nebyl hlášen

Seizmická činnost

Město Distance Mag. Čas & datum
Žádné zemětřesení v okolí nebylo hlášeno
Minimální zobrazený rozsah je 2.5.

Pobřežní teplota vody

Lokalita Teplota
Marblehead, OH 64.9 °F

Poblíž povětrnostní stanice